Pagrindinis puslapis
METAR-TAF:

METAR-TAF

Oro uostai :

Taubatė, San Paulas, Brazilija

platuma: 23-02-26S, ilguma: 45-31-00W, Aukštis: 577 m

Dabartinis oras

Ataskaita buvo paskelbta 33 minutes, ne 12:00 UTC
Vėjas 3 kt iš Rytų/Šiaurės Rytų, svyruoja nuo Šiaurės/Šiaurės Rytų ir Rytų/Pietryčių
Temperatūra 20°C
Drėgmė 83%
Slėgis 1024 hPa
Matomumas: 3500 m
Su prošvaistėmis ne aukštis 1500 ft
Su prošvaistėmis ne aukštis 8000 ft
rūkana

METAR: SBTA 041200Z 07003KT 030V110 3500 BR BKN015 BKN080 20/17 Q1024

Laikas: 09:33 (12:33 UTC)


TAF: trūkstamas

Orai ataskaitas ir orų prognozės (METAR, TAF).

turimą stotys yra geltonos ir raudonos taškus žemėlapyje.

Perkelti pele per norėdami pamatyti stoties vardą.

Tada spustelėkite, norėdami matyti oro stebėjimo ir prognozės.

Norėdami pakeisti žemėlapį: spustelėkite ant žalios mygtukų su juodo kryžiaus žemyn,; žalią mygtuką su brūkšneliu, jei norite nutolinti; arba žalių rodyklių gretimoms žemėlapius.


METAR-TAF: